createdAt,value
2019-03-27T00:00:01.520Z,83.78
2019-03-27T00:01:01.533Z,84.16
2019-03-27T00:02:01.563Z,84.01
2019-03-27T00:03:01.442Z,84.53
2019-03-27T00:04:01.417Z,84.68
2019-03-27T00:05:01.389Z,84.21
2019-03-27T00:06:01.364Z,84.78
2019-03-27T00:07:01.339Z,84.87
2019-03-27T00:08:01.337Z,84.4
2019-03-27T00:09:01.048Z,84.68
2019-03-27T00:10:01.266Z,84.59
2019-03-27T00:11:01.375Z,84.68
2019-03-27T00:12:01.203Z,84.59
2019-03-27T00:13:01.725Z,85.16
2019-03-27T00:14:01.343Z,85.16
2019-03-27T00:15:14.373Z,85.06
2019-03-27T00:16:01.105Z,85.06
2019-03-27T00:17:01.079Z,84.97
2019-03-27T00:18:01.053Z,85.2
2019-03-27T00:19:01.020Z,84.97
2019-03-27T00:20:00.993Z,84.97
2019-03-27T00:21:00.966Z,85.06
2019-03-27T00:22:00.941Z,85.06
2019-03-27T00:23:00.915Z,85.16
2019-03-27T00:24:00.889Z,84.97
2019-03-27T00:25:00.862Z,84.97
2019-03-27T00:26:00.830Z,84.87
2019-03-27T00:27:00.878Z,85.06
2019-03-27T00:28:00.776Z,85.63
2019-03-27T00:29:00.750Z,85.63
2019-03-27T00:30:00.723Z,85.82
2019-03-27T00:31:00.695Z,85.63
2019-03-27T00:32:00.671Z,85.63
2019-03-27T00:33:00.655Z,85.53
2019-03-27T00:34:00.615Z,85.72
2019-03-27T00:35:00.593Z,85.35
2019-03-27T00:36:00.561Z,85.72
2019-03-27T00:37:00.537Z,85.53
2019-03-27T00:38:00.510Z,85.53
2019-03-27T00:39:00.482Z,85.53
2019-03-27T00:40:00.344Z,85.44
2019-03-27T00:41:00.428Z,85.44
2019-03-27T00:42:00.403Z,85.25
2019-03-27T00:43:00.389Z,85.25
2019-03-27T00:44:00.351Z,85.63
2019-03-27T00:45:00.378Z,85.63
2019-03-27T00:46:00.306Z,85.44
2019-03-27T00:47:00.267Z,85.44
2019-03-27T00:48:00.242Z,85.53
2019-03-27T00:49:00.217Z,85.63
2019-03-27T00:50:00.272Z,85.82
2019-03-27T00:51:00.163Z,85.82
2019-03-27T00:52:00.134Z,85.82
2019-03-27T00:53:00.177Z,85.82
2019-03-27T00:54:00.102Z,86.01
2019-03-27T00:55:00.052Z,86.01
2019-03-27T00:56:00.031Z,86.01
2019-03-27T00:57:00.002Z,86.01
2019-03-27T00:57:59.971Z,86.01
2019-03-27T00:58:59.950Z,85.82
2019-03-27T00:59:59.922Z,85.91
2019-03-27T01:00:59.891Z,85.91
2019-03-27T01:01:59.869Z,85.91
2019-03-27T01:02:59.835Z,86.39
2019-03-27T01:03:59.817Z,86.2
2019-03-27T01:04:59.786Z,86.2
2019-03-27T01:05:59.759Z,86.39
2019-03-27T01:06:59.731Z,86.87
2019-03-27T01:07:59.704Z,86.58
2019-03-27T01:08:59.676Z,86.39
2019-03-27T01:09:59.651Z,86.77
2019-03-27T01:10:59.625Z,86.87
2019-03-27T01:11:59.597Z,86.77
2019-03-27T01:12:59.569Z,86.77
2019-03-27T01:13:59.540Z,87.34
2019-03-27T01:14:59.516Z,87.15
2019-03-27T01:15:59.504Z,87.24
2019-03-27T01:16:59.459Z,87.43
2019-03-27T01:17:59.437Z,87.15
2019-03-27T01:18:59.404Z,87.53
2019-03-27T01:19:59.379Z,87.34
2019-03-27T01:20:59.352Z,87.62
2019-03-27T01:21:59.327Z,87.91
2019-03-27T01:22:59.057Z,87.43
2019-03-27T01:23:59.269Z,87.82
2019-03-27T01:24:59.244Z,87.62
2019-03-27T01:25:59.216Z,87.82
2019-03-27T01:26:59.187Z,88.01
2019-03-27T01:27:59.167Z,88.29
2019-03-27T01:28:59.131Z,88.48
2019-03-27T01:29:59.112Z,88.1
2019-03-27T01:30:59.084Z,88.2
2019-03-27T01:31:59.055Z,88.29
2019-03-27T01:32:59.026Z,88.76
2019-03-27T01:33:58.996Z,88.57
2019-03-27T01:34:58.972Z,88.57
2019-03-27T01:35:58.944Z,89.05
2019-03-27T01:36:58.917Z,89
2019-03-27T01:37:58.651Z,88.67
2019-03-27T01:38:58.862Z,88.86
2019-03-27T01:39:58.835Z,88.76
2019-03-27T01:40:58.810Z,89.05
2019-03-27T01:41:58.779Z,88.86
2019-03-27T01:42:58.754Z,89.33
2019-03-27T01:43:58.727Z,89.81
2019-03-27T01:44:58.698Z,89.81
2019-03-27T01:45:58.676Z,89.72
2019-03-27T01:46:58.646Z,89.62
2019-03-27T01:47:58.615Z,89.72
2019-03-27T01:48:58.597Z,89.72
2019-03-27T01:49:58.559Z,89.9
2019-03-27T01:50:58.532Z,89.9
2019-03-27T01:51:58.508Z,89.62
2019-03-27T01:52:58.482Z,89.72
2019-03-27T01:53:58.455Z,89.72
2019-03-27T01:54:58.427Z,89.9
2019-03-27T01:55:58.398Z,90.28
2019-03-27T01:56:58.371Z,90.19
2019-03-27T01:57:58.348Z,90.09
2019-03-27T01:58:58.316Z,90.38
2019-03-27T01:59:58.292Z,90.14
2019-03-27T02:00:58.271Z,90.09
2019-03-27T02:01:58.234Z,90.47
2019-03-27T02:02:58.217Z,90.95
2019-03-27T02:03:58.181Z,90.66
2019-03-27T02:04:58.154Z,90.66
2019-03-27T02:05:58.125Z,90.47
2019-03-27T02:06:58.107Z,90.95
2019-03-27T02:07:58.076Z,90.71
2019-03-27T02:08:58.050Z,90.85
2019-03-27T02:09:58.109Z,90.95
2019-03-27T02:10:57.988Z,90.85
2019-03-27T02:11:57.968Z,90.66
2019-03-27T02:12:57.938Z,91.24
2019-03-27T02:13:57.909Z,90.81
2019-03-27T02:14:57.879Z,91.24
2019-03-27T02:16:09.002Z,91.38
2019-03-27T02:16:57.828Z,91.47
2019-03-27T02:17:57.803Z,91.47
2019-03-27T02:18:57.770Z,91.56
2019-03-27T02:19:57.744Z,91.66
2019-03-27T02:20:57.720Z,91.28
2019-03-27T02:21:57.689Z,91.66
2019-03-27T02:22:57.666Z,91.56
2019-03-27T02:23:57.637Z,92.14
2019-03-27T02:24:57.611Z,92.52
2019-03-27T02:25:57.584Z,91.85
2019-03-27T02:26:57.554Z,92.14
2019-03-27T02:27:57.529Z,92.23
2019-03-27T02:28:57.510Z,92.14
2019-03-27T02:29:57.487Z,92.33
2019-03-27T02:30:57.453Z,92.8
2019-03-27T02:31:57.423Z,92.52
2019-03-27T02:32:57.498Z,92.9
2019-03-27T02:33:57.365Z,92.71
2019-03-27T02:34:57.345Z,92.52
2019-03-27T02:35:57.320Z,93.37
2019-03-27T02:36:57.292Z,93.18
2019-03-27T02:37:57.256Z,93.56
2019-03-27T02:38:57.231Z,93.46
2019-03-27T02:39:57.206Z,93.46
2019-03-27T02:40:57.172Z,93.65
2019-03-27T02:41:57.155Z,93.08
2019-03-27T02:42:57.121Z,93.84
2019-03-27T02:43:57.094Z,93.65
2019-03-27T02:44:57.066Z,94.13
2019-03-27T02:45:57.041Z,94.32
2019-03-27T02:46:57.029Z,94.03
2019-03-27T02:47:56.984Z,93.94
2019-03-27T02:48:56.963Z,93.94
2019-03-27T02:49:56.940Z,94.03
2019-03-27T02:50:56.984Z,94.42
2019-03-27T02:51:56.878Z,94.79
2019-03-27T02:52:56.848Z,94.6
2019-03-27T02:53:56.825Z,94.6
2019-03-27T02:54:56.802Z,94.51
2019-03-27T02:55:56.776Z,94.6
2019-03-27T02:56:56.742Z,95.17
2019-03-27T02:57:56.715Z,94.98
2019-03-27T02:58:56.693Z,94.98
2019-03-27T02:59:56.665Z,95.55
2019-03-27T03:00:56.633Z,95.65
2019-03-27T03:01:56.603Z,95.65
2019-03-27T03:02:56.574Z,95.65
2019-03-27T03:03:56.552Z,95.65
2019-03-27T03:04:56.521Z,95.93
2019-03-27T03:05:56.490Z,95.93
2019-03-27T03:06:56.563Z,95.93
2019-03-27T03:07:56.454Z,96.41
2019-03-27T03:08:56.416Z,96.5
2019-03-27T03:09:56.388Z,96.12
2019-03-27T03:10:56.356Z,96.31
2019-03-27T03:11:56.330Z,96.03
2019-03-27T03:12:56.303Z,96.31
2019-03-27T03:13:56.295Z,96.12
2019-03-27T03:14:56.250Z,96.69
2019-03-27T03:15:56.221Z,96.41
2019-03-27T03:16:56.193Z,96.5
2019-03-27T03:17:56.167Z,96.88
2019-03-27T03:18:56.138Z,96.88
2019-03-27T03:19:56.113Z,97.17
2019-03-27T03:20:56.089Z,97.45
2019-03-27T03:21:56.164Z,97.36
2019-03-27T03:22:56.029Z,97.26
2019-03-27T03:23:56.002Z,97.17
2019-03-27T03:24:55.976Z,97.55
2019-03-27T03:25:55.962Z,97.45
2019-03-27T03:26:55.921Z,97.45
2019-03-27T03:27:55.892Z,97.55
2019-03-27T03:28:55.866Z,97.74
2019-03-27T03:29:55.839Z,97.74
2019-03-27T03:30:55.883Z,97.45
2019-03-27T03:31:55.792Z,98.49
2019-03-27T03:32:55.764Z,98.02
2019-03-27T03:33:55.989Z,98.11
2019-03-27T03:34:55.750Z,98.3
2019-03-27T03:35:55.673Z,98.02
2019-03-27T03:36:55.651Z,98.02
2019-03-27T03:37:55.620Z,97.92
2019-03-27T03:38:55.605Z,98.3
2019-03-27T03:39:55.567Z,98.4
2019-03-27T03:40:55.541Z,97.83
2019-03-27T03:41:55.525Z,97.92
2019-03-27T03:42:55.482Z,98.3
2019-03-27T03:43:55.459Z,98.49
2019-03-27T03:44:55.433Z,98.4
2019-03-27T03:45:55.399Z,98.3
2019-03-27T03:47:02.712Z,98.11
2019-03-27T03:47:55.364Z,98.4
2019-03-27T03:48:55.325Z,98.49
2019-03-27T03:49:55.289Z,98.3
2019-03-27T03:50:55.266Z,98.49
2019-03-27T03:51:55.252Z,98.78
2019-03-27T03:52:55.215Z,98.97
2019-03-27T03:53:55.195Z,99.06
2019-03-27T03:54:55.169Z,98.78
2019-03-27T03:55:55.131Z,99.16
2019-03-27T03:56:55.100Z,99.06
2019-03-27T03:57:55.078Z,99.35
2019-03-27T03:58:55.056Z,98.97
2019-03-27T03:59:55.044Z,98.97
2019-03-27T04:00:55.003Z,98.87
2019-03-27T04:01:54.729Z,98.87
2019-03-27T04:02:54.944Z,99.54
2019-03-27T04:03:54.929Z,99.54
2019-03-27T04:04:54.896Z,99.44
2019-03-27T04:05:54.859Z,99.16
2019-03-27T04:06:54.834Z,99.16
2019-03-27T04:07:54.812Z,99.16
2019-03-27T04:08:54.776Z,99.16
2019-03-27T04:09:54.576Z,99.16
2019-03-27T04:10:54.726Z,99.26
2019-03-27T04:11:54.727Z,99.63
2019-03-27T04:12:54.669Z,99.63
2019-03-27T04:13:54.640Z,99.99
2019-03-27T04:14:54.613Z,99.99
2019-03-27T04:15:54.585Z,99.99
2019-03-27T04:16:54.558Z,99.99
2019-03-27T04:17:54.527Z,99.99
2019-03-27T04:18:54.500Z,99.99
2019-03-27T04:19:54.476Z,99.99
2019-03-27T04:20:54.455Z,99.91
2019-03-27T04:21:54.190Z,99.91
2019-03-27T04:22:54.389Z,99.99
2019-03-27T04:23:54.375Z,99.99
2019-03-27T04:24:54.338Z,99.99
2019-03-27T04:26:11.975Z,99.99
2019-03-27T04:26:54.432Z,99.99
2019-03-27T04:27:54.253Z,99.99
2019-03-27T04:28:54.230Z,99.99
2019-03-27T04:29:54.202Z,99.99
2019-03-27T04:30:54.171Z,99.99
2019-03-27T04:31:54.156Z,99.99
2019-03-27T04:32:54.129Z,99.99
2019-03-27T04:33:54.095Z,99.99
2019-03-27T04:34:54.066Z,99.99
2019-03-27T04:35:54.039Z,99.99
2019-03-27T04:36:54.119Z,99.99
2019-03-27T04:37:53.990Z,99.99
2019-03-27T04:38:53.956Z,99.99
2019-03-27T04:39:53.924Z,99.99
2019-03-27T04:40:53.898Z,99.99
2019-03-27T04:41:53.872Z,99.99
2019-03-27T04:42:53.841Z,99.99
2019-03-27T04:43:53.815Z,99.99
2019-03-27T04:44:53.549Z,99.99
2019-03-27T04:45:53.762Z,99.99
2019-03-27T04:46:53.752Z,99.99
2019-03-27T04:47:53.703Z,99.99
2019-03-27T04:48:53.682Z,99.99
2019-03-27T04:49:53.651Z,99.99
2019-03-27T04:50:53.622Z,99.99
2019-03-27T04:51:53.591Z,99.99
2019-03-27T04:52:53.572Z,99.99
2019-03-27T04:53:53.544Z,99.99
2019-03-27T04:54:53.513Z,99.99
2019-03-27T04:55:53.489Z,99.99
2019-03-27T04:56:53.458Z,99.99
2019-03-27T04:57:53.433Z,99.99
2019-03-27T04:58:53.403Z,99.99
2019-03-27T04:59:53.399Z,99.99
2019-03-27T05:00:53.352Z,99.99
2019-03-27T05:01:53.324Z,99.99
2019-03-27T05:02:53.296Z,99.99
2019-03-27T05:03:53.272Z,99.99
2019-03-27T05:04:53.242Z,99.99
2019-03-27T05:05:53.214Z,99.99
2019-03-27T05:06:53.186Z,99.99
2019-03-27T05:07:53.157Z,99.99
2019-03-27T05:08:53.129Z,99.99
2019-03-27T05:09:53.228Z,99.99
2019-03-27T05:10:53.072Z,99.99
2019-03-27T05:11:53.066Z,99.99
2019-03-27T05:12:53.018Z,99.99
2019-03-27T05:13:52.994Z,99.99
2019-03-27T05:14:52.962Z,99.99
2019-03-27T05:15:52.944Z,99.99
2019-03-27T05:16:52.905Z,99.99
2019-03-27T05:17:52.880Z,99.99
2019-03-27T05:18:52.849Z,99.99
2019-03-27T05:19:52.821Z,99.99
2019-03-27T05:20:52.802Z,99.99
2019-03-27T05:21:52.768Z,99.99
2019-03-27T05:22:52.746Z,99.99
2019-03-27T05:23:52.718Z,99.99
2019-03-27T05:24:52.690Z,99.99
2019-03-27T05:25:52.664Z,99.99
2019-03-27T05:26:52.634Z,99.99
2019-03-27T05:27:52.619Z,99.99
2019-03-27T05:28:52.580Z,99.99
2019-03-27T05:29:52.552Z,99.99
2019-03-27T05:30:52.526Z,99.99
2019-03-27T05:31:52.500Z,99.99
2019-03-27T05:32:52.467Z,99.99
2019-03-27T05:33:52.450Z,99.99
2019-03-27T05:34:52.418Z,99.99
2019-03-27T05:35:52.394Z,99.82
2019-03-27T05:36:52.367Z,99.91
2019-03-27T05:37:52.333Z,99.82
2019-03-27T05:38:52.312Z,99.99
2019-03-27T05:39:52.044Z,99.99
2019-03-27T05:40:52.255Z,99.99
2019-03-27T05:41:52.228Z,99.99
2019-03-27T05:43:02.987Z,99.99
2019-03-27T05:43:52.171Z,99.99
2019-03-27T05:44:52.156Z,99.99
2019-03-27T05:45:52.125Z,99.99
2019-03-27T05:46:52.094Z,99.99
2019-03-27T05:48:01.781Z,99.99
2019-03-27T05:48:52.041Z,99.99
2019-03-27T05:49:52.013Z,99.99
2019-03-27T05:50:51.990Z,99.99
2019-03-27T05:51:51.958Z,99.99
2019-03-27T05:52:51.932Z,99.99
2019-03-27T05:53:51.904Z,99.99
2019-03-27T05:54:51.879Z,99.99
2019-03-27T05:55:51.852Z,99.99
2019-03-27T05:56:51.824Z,99.99
2019-03-27T05:57:51.798Z,99.99
2019-03-27T05:58:51.770Z,99.99
2019-03-27T05:59:51.743Z,99.99
2019-03-27T06:00:51.768Z,99.99
2019-03-27T06:01:51.690Z,99.99
2019-03-27T06:02:51.664Z,99.91
2019-03-27T06:03:51.639Z,99.99
2019-03-27T06:04:51.611Z,99.99
2019-03-27T06:05:51.579Z,99.99
2019-03-27T06:06:51.554Z,99.99
2019-03-27T06:07:51.524Z,99.99
2019-03-27T06:08:51.498Z,99.99
2019-03-27T06:09:51.485Z,99.99
2019-03-27T06:10:51.444Z,99.99
2019-03-27T06:11:51.416Z,99.99
2019-03-27T06:12:51.397Z,99.99
2019-03-27T06:13:51.769Z,99.99
2019-03-27T06:14:51.332Z,99.99
2019-03-27T06:15:51.307Z,99.99
2019-03-27T06:16:51.283Z,99.99
2019-03-27T06:17:51.257Z,99.99
2019-03-27T06:18:51.255Z,99.99
2019-03-27T06:19:51.201Z,99.99
2019-03-27T06:20:51.177Z,99.99
2019-03-27T06:21:51.210Z,99.99
2019-03-27T06:22:51.121Z,99.99
2019-03-27T06:23:51.090Z,99.99
2019-03-27T06:24:51.065Z,99.99
2019-03-27T06:25:51.037Z,99.99
2019-03-27T06:26:51.008Z,99.99
2019-03-27T06:27:50.978Z,99.99
2019-03-27T06:28:50.953Z,99.99
2019-03-27T06:29:50.930Z,99.99
2019-03-27T06:30:50.905Z,99.99
2019-03-27T06:31:50.893Z,99.99
2019-03-27T06:32:50.850Z,99.99
2019-03-27T06:33:50.821Z,99.99
2019-03-27T06:34:50.801Z,99.99
2019-03-27T06:35:50.767Z,99.99
2019-03-27T06:36:50.742Z,99.99
2019-03-27T06:37:50.713Z,99.99
2019-03-27T06:38:50.686Z,99.99
2019-03-27T06:39:50.658Z,99.99
2019-03-27T06:40:51.431Z,99.99
2019-03-27T06:41:51.102Z,99.99
2019-03-27T06:42:50.580Z,99.99
2019-03-27T06:43:50.549Z,99.99
2019-03-27T06:44:50.525Z,99.99
2019-03-27T06:45:50.503Z,99.99
2019-03-27T06:46:50.473Z,99.99
2019-03-27T06:47:50.445Z,99.99
2019-03-27T06:48:50.423Z,99.99
2019-03-27T06:49:50.391Z,99.99
2019-03-27T06:50:50.366Z,99.99
2019-03-27T06:51:50.337Z,99.99
2019-03-27T06:52:50.359Z,99.99
2019-03-27T06:53:50.283Z,99.99
2019-03-27T06:54:50.259Z,99.99
2019-03-27T06:55:50.228Z,99.97
2019-03-27T06:56:50.208Z,99.97
2019-03-27T06:57:50.178Z,99.99
2019-03-27T06:58:56.922Z,99.58
2019-03-27T06:59:50.129Z,99.3
2019-03-27T07:00:50.112Z,99.3
2019-03-27T07:01:50.074Z,99.49
2019-03-27T07:02:50.054Z,99.11
2019-03-27T07:03:50.631Z,99.02
2019-03-27T07:04:50.000Z,99.21
2019-03-27T07:05:49.969Z,99.21
2019-03-27T07:06:49.962Z,99.49
2019-03-27T07:07:49.917Z,98.83
2019-03-27T07:08:49.888Z,99.3
2019-03-27T07:09:50.636Z,99.02
2019-03-27T07:10:49.839Z,98.64
2019-03-27T07:11:50.049Z,99.21
2019-03-27T07:12:49.788Z,98.64
2019-03-27T07:13:49.963Z,98.54
2019-03-27T07:14:49.734Z,98.16
2019-03-27T07:15:49.708Z,98.54
2019-03-27T07:16:49.686Z,98.07
2019-03-27T07:17:49.657Z,98.16
2019-03-27T07:18:49.768Z,97.78
2019-03-27T07:19:49.613Z,97.69
2019-03-27T07:20:49.577Z,98.16
2019-03-27T07:21:49.558Z,97.6
2019-03-27T07:22:49.534Z,97.5
2019-03-27T07:23:49.503Z,97.6
2019-03-27T07:24:49.474Z,97.41
2019-03-27T07:25:49.451Z,97.45
2019-03-27T07:26:49.314Z,96.55
2019-03-27T07:27:49.401Z,96.74
2019-03-27T07:28:49.141Z,96.74
2019-03-27T07:29:49.360Z,96.55
2019-03-27T07:30:49.323Z,96.64
2019-03-27T07:31:49.299Z,96.64
2019-03-27T07:32:49.276Z,96.64
2019-03-27T07:33:49.693Z,96.79
2019-03-27T07:34:49.451Z,96.41
2019-03-27T07:35:49.202Z,96.41
2019-03-27T07:36:49.172Z,96.31
2019-03-27T07:37:49.143Z,96.03
2019-03-27T07:38:49.119Z,95.27
2019-03-27T07:39:49.093Z,95.17
2019-03-27T07:40:49.080Z,95.17
2019-03-27T07:41:49.043Z,95.08
2019-03-27T07:42:49.019Z,95.17
2019-03-27T07:43:48.994Z,95.27
2019-03-27T07:44:48.967Z,95.17
2019-03-27T07:45:48.943Z,95.17
2019-03-27T07:46:49.154Z,94.79
2019-03-27T07:47:50.532Z,94.7
2019-03-27T07:48:57.060Z,94.51
2019-03-27T07:49:48.837Z,94.51
2019-03-27T07:50:48.815Z,94.7
2019-03-27T07:51:48.787Z,94.51
2019-03-27T07:52:48.764Z,94.6
2019-03-27T07:53:48.746Z,94.6
2019-03-27T07:54:48.715Z,94.13
2019-03-27T07:55:48.688Z,93.84
2019-03-27T07:56:48.664Z,94.03
2019-03-27T07:57:48.644Z,93.94
2019-03-27T07:58:48.616Z,93.56
2019-03-27T07:59:48.606Z,92.94
2019-03-27T08:00:48.674Z,92.46
2019-03-27T08:01:48.541Z,92.37
2019-03-27T08:02:48.520Z,91.99
2019-03-27T08:03:48.491Z,91.71
2019-03-27T08:04:48.469Z,90.47
2019-03-27T08:05:48.445Z,90.85
2019-03-27T08:06:48.419Z,90.19
2019-03-27T08:07:48.394Z,90
2019-03-27T08:08:48.370Z,90.19
2019-03-27T08:09:48.345Z,90.19
2019-03-27T08:10:48.322Z,90.09
2019-03-27T08:11:48.312Z,90
2019-03-27T08:12:48.274Z,90.19
2019-03-27T08:13:48.251Z,90.19
2019-03-27T08:14:48.220Z,89.61
2019-03-27T08:15:48.200Z,89.33
2019-03-27T08:16:48.183Z,89.33
2019-03-27T08:17:48.163Z,89.52
2019-03-27T08:18:48.133Z,89.33
2019-03-27T08:19:48.138Z,89.23
2019-03-27T08:20:48.076Z,89.14
2019-03-27T08:21:48.053Z,89.52
2019-03-27T08:22:48.028Z,89.14
2019-03-27T08:23:48.611Z,89.42
2019-03-27T08:24:47.983Z,88.67
2019-03-27T08:25:47.955Z,88.04
2019-03-27T08:26:47.934Z,88.23
2019-03-27T08:27:47.980Z,87.85
2019-03-27T08:28:47.887Z,87.19
2019-03-27T08:29:47.862Z,86.9
2019-03-27T08:30:47.841Z,86.43
2019-03-27T08:31:47.814Z,86.24
2019-03-27T08:32:47.795Z,86.33
2019-03-27T08:33:47.842Z,85.66
2019-03-27T08:34:47.743Z,85.19
2019-03-27T08:35:47.727Z,85.28
2019-03-27T08:36:47.701Z,85.1
2019-03-27T08:37:47.672Z,85.28
2019-03-27T08:38:47.647Z,85.81
2019-03-27T08:39:47.631Z,85.81
2019-03-27T08:40:47.608Z,85.72
2019-03-27T08:41:47.573Z,85.62
2019-03-27T08:42:47.554Z,85.34
2019-03-27T08:43:47.524Z,85.43
2019-03-27T08:44:47.504Z,85.24
2019-03-27T08:45:47.482Z,85.34
2019-03-27T08:46:47.456Z,85.24
2019-03-27T08:47:47.432Z,85.15
2019-03-27T08:48:47.414Z,85.15
2019-03-27T08:49:47.382Z,84.67
2019-03-27T08:50:47.354Z,84.77
2019-03-27T08:51:47.331Z,84.72
2019-03-27T08:52:47.309Z,84.43
2019-03-27T08:53:47.284Z,84.05
2019-03-27T08:54:47.263Z,84.43
2019-03-27T08:55:47.233Z,84.14
2019-03-27T08:56:47.212Z,83.67
2019-03-27T08:57:47.376Z,83.86
2019-03-27T08:58:47.164Z,83.76
2019-03-27T08:59:47.140Z,83.48
2019-03-27T09:00:47.119Z,83.86
2019-03-27T09:01:47.100Z,83.67
2019-03-27T09:02:47.066Z,83.58
2019-03-27T09:03:47.043Z,83.58
2019-03-27T09:04:47.105Z,83.48
2019-03-27T09:05:46.998Z,83.86
2019-03-27T09:06:46.966Z,83.76
2019-03-27T09:07:46.941Z,83.39
2019-03-27T09:08:46.919Z,83.19
2019-03-27T09:09:46.925Z,83.19
2019-03-27T09:10:46.867Z,83.39
2019-03-27T09:11:46.847Z,83.19
2019-03-27T09:12:46.849Z,83.1
2019-03-27T09:13:46.797Z,82.24
2019-03-27T09:14:46.771Z,82.29
2019-03-27T09:15:46.747Z,82.71
2019-03-27T09:16:46.727Z,82.53
2019-03-27T09:17:46.696Z,82.62
2019-03-27T09:18:46.436Z,82.34
2019-03-27T09:19:46.648Z,81.77
2019-03-27T09:20:46.623Z,81.58
2019-03-27T09:21:46.598Z,81.01
2019-03-27T09:22:46.576Z,81.2
2019-03-27T09:23:48.353Z,80.86
2019-03-27T09:24:46.523Z,80.38
2019-03-27T09:25:46.499Z,79.52
2019-03-27T09:26:46.476Z,79.62
2019-03-27T09:27:46.222Z,79.33
2019-03-27T09:28:46.428Z,78.96
2019-03-27T09:29:46.418Z,78.77
2019-03-27T09:30:46.378Z,78.38
2019-03-27T09:31:47.832Z,78.29
2019-03-27T09:32:46.329Z,78.48
2019-03-27T09:33:46.309Z,78
2019-03-27T09:34:46.360Z,77.81
2019-03-27T09:35:46.326Z,77.81
2019-03-27T09:36:46.239Z,77.34
2019-03-27T09:37:46.209Z,76.67
2019-03-27T09:38:46.184Z,77.05
2019-03-27T09:39:46.160Z,76.29
2019-03-27T09:40:46.139Z,76.39
2019-03-27T09:41:46.111Z,75.91
2019-03-27T09:42:46.086Z,76.29
2019-03-27T09:43:46.064Z,76.29
2019-03-27T09:44:46.039Z,76.2
2019-03-27T09:45:45.897Z,76.1
2019-03-27T09:46:45.992Z,75.62
2019-03-27T09:47:45.968Z,75.81
2019-03-27T09:48:45.941Z,75.38
2019-03-27T09:49:51.823Z,75.09
2019-03-27T09:50:45.894Z,74.71
2019-03-27T09:51:45.869Z,74.62
2019-03-27T09:52:45.844Z,74.71
2019-03-27T09:53:45.823Z,73.66
2019-03-27T09:54:45.805Z,73.95
2019-03-27T09:55:45.784Z,73.63
2019-03-27T09:56:45.537Z,73.82
2019-03-27T09:57:45.896Z,73.91
2019-03-27T09:58:45.488Z,73.82
2019-03-27T09:59:45.682Z,73.76
2019-03-27T10:00:45.655Z,73.85
2019-03-27T10:01:45.828Z,73.47
2019-03-27T10:02:45.609Z,72.81
2019-03-27T10:03:45.583Z,72.42
2019-03-27T10:04:45.560Z,71.67
2019-03-27T10:05:45.534Z,71.28
2019-03-27T10:06:45.515Z,71.03
2019-03-27T10:07:45.552Z,71.03
2019-03-27T10:08:45.501Z,70.27
2019-03-27T10:09:45.442Z,70.08
2019-03-27T10:10:45.183Z,70.27
2019-03-27T10:11:45.882Z,69.99
2019-03-27T10:12:45.379Z,69.42
2019-03-27T10:13:45.616Z,68.94
2019-03-27T10:14:47.479Z,69.04
2019-03-27T10:15:45.069Z,68.84
2019-03-27T10:16:45.303Z,68.37
2019-03-27T10:17:45.255Z,67.99
2019-03-27T10:18:47.408Z,67.41
2019-03-27T10:19:45.219Z,66.75
2019-03-27T10:20:45.188Z,66.08
2019-03-27T10:21:45.170Z,65.23
2019-03-27T10:22:45.394Z,64.62
2019-03-27T10:23:46.139Z,63.96
2019-03-27T10:24:45.099Z,64.34
2019-03-27T10:25:45.076Z,64.15
2019-03-27T10:26:45.335Z,63.86
2019-03-27T10:27:45.031Z,64.05
2019-03-27T10:28:45.020Z,64.18
2019-03-27T10:29:44.985Z,63.8
2019-03-27T10:30:44.959Z,64.08
2019-03-27T10:31:44.703Z,63.6
2019-03-27T10:32:44.923Z,63.42
2019-03-27T10:33:44.924Z,63.51
2019-03-27T10:34:44.868Z,63.8
2019-03-27T10:35:44.846Z,63.8
2019-03-27T10:36:44.827Z,63.8
2019-03-27T10:37:44.808Z,63.99
2019-03-27T10:38:44.777Z,63.8
2019-03-27T10:39:44.754Z,63.99
2019-03-27T10:40:44.739Z,63.42
2019-03-27T10:41:44.732Z,63.54
2019-03-27T10:42:44.689Z,63.17
2019-03-27T10:43:44.665Z,62.97
2019-03-27T10:44:44.645Z,62.78
2019-03-27T10:45:44.619Z,62.78
2019-03-27T10:46:44.676Z,62.59
2019-03-27T10:47:44.579Z,62.02
2019-03-27T10:48:54.819Z,62.3
2019-03-27T10:49:44.534Z,62.12
2019-03-27T10:50:44.511Z,62.02
2019-03-27T10:51:44.492Z,62.02
2019-03-27T10:52:44.475Z,62.4
2019-03-27T10:53:44.446Z,61.93
2019-03-27T10:54:44.426Z,62.68
2019-03-27T10:55:44.404Z,62.21
2019-03-27T10:56:44.385Z,62.3
2019-03-27T10:57:44.359Z,62.3
2019-03-27T10:58:44.345Z,62.4
2019-03-27T10:59:44.317Z,62.68
2019-03-27T11:00:44.294Z,62.75
2019-03-27T11:01:44.269Z,63.51
2019-03-27T11:02:44.248Z,62.65
2019-03-27T11:03:44.227Z,62.49
2019-03-27T11:04:44.204Z,61.54
2019-03-27T11:05:44.182Z,61.42
2019-03-27T11:06:44.163Z,61.13
2019-03-27T11:07:44.159Z,61.04
2019-03-27T11:08:44.113Z,60.37
2019-03-27T11:09:43.858Z,60.97
2019-03-27T11:10:44.067Z,60.21
2019-03-27T11:11:44.046Z,60.21
2019-03-27T11:12:44.024Z,60.21
2019-03-27T11:13:44.017Z,59.76
2019-03-27T11:14:44.208Z,59.57
2019-03-27T11:15:43.719Z,59.38
2019-03-27T11:16:43.939Z,59.09
2019-03-27T11:17:43.920Z,58.84
2019-03-27T11:18:43.896Z,58.65
2019-03-27T11:19:43.876Z,57.98
2019-03-27T11:20:43.854Z,57.82
2019-03-27T11:21:43.835Z,57.72
2019-03-27T11:22:43.815Z,57.15
2019-03-27T11:23:43.797Z,56.6
2019-03-27T11:24:43.774Z,56.23
2019-03-27T11:25:43.753Z,55.4
2019-03-27T11:26:43.735Z,54.72
2019-03-27T11:27:43.747Z,54.63
2019-03-27T11:28:43.697Z,53.96
2019-03-27T11:29:43.675Z,53.67
2019-03-27T11:30:43.657Z,53.29
2019-03-27T11:32:55.583Z,52.53
2019-03-27T11:33:55.569Z,52.34
2019-03-27T11:34:55.536Z,52.43
2019-03-27T11:35:55.527Z,52.24
2019-03-27T11:36:55.500Z,51.86
2019-03-27T11:37:55.483Z,51.76
2019-03-27T11:38:55.464Z,51.86
2019-03-27T11:39:55.445Z,51.57
2019-03-27T11:40:55.429Z,51.38
2019-03-27T11:41:55.407Z,51.5
2019-03-27T11:42:55.391Z,51.41
2019-03-27T11:43:57.596Z,50.84
2019-03-27T11:44:55.353Z,51.03
2019-03-27T11:45:55.338Z,51.21
2019-03-27T11:46:55.320Z,50.81
2019-03-27T11:47:55.305Z,51.19
2019-03-27T11:48:55.283Z,51.29
2019-03-27T11:49:55.267Z,51.26
2019-03-27T11:50:55.248Z,51.83
2019-03-27T11:51:55.233Z,52.5
2019-03-27T11:52:55.293Z,52.48
2019-03-27T11:53:55.195Z,53.05
2019-03-27T11:54:55.179Z,53.24
2019-03-27T11:55:55.163Z,53.24
2019-03-27T11:56:55.144Z,53.43
2019-03-27T11:57:55.121Z,53.62
2019-03-27T11:58:55.106Z,53.72
2019-03-27T11:59:56.659Z,54
2019-03-27T12:00:57.140Z,53.72
2019-03-27T12:01:55.048Z,53.53
2019-03-27T12:02:55.029Z,52.95
2019-03-27T12:03:55.011Z,52.95
2019-03-27T12:04:54.993Z,53.24
2019-03-27T12:05:54.742Z,53.5
2019-03-27T12:06:55.013Z,53.21
2019-03-27T12:07:54.942Z,53.21
2019-03-27T12:08:54.917Z,53.31
2019-03-27T12:09:54.900Z,53.5
2019-03-27T12:10:54.875Z,52.86
2019-03-27T12:11:54.876Z,52.86
2019-03-27T12:12:55.055Z,52.95
2019-03-27T12:13:54.836Z,51.81
2019-03-27T12:14:54.799Z,51.62
2019-03-27T12:15:54.786Z,51.81
2019-03-27T12:16:54.760Z,51.43
2019-03-27T12:17:54.739Z,51.33
2019-03-27T12:18:54.726Z,50.98
2019-03-27T12:19:54.703Z,50.59
2019-03-27T12:21:01.875Z,50.88
2019-03-27T12:21:57.276Z,50.33
2019-03-27T12:23:00.186Z,49.85
2019-03-27T12:23:54.626Z,50.33
2019-03-27T12:24:54.616Z,49.57
2019-03-27T12:25:57.643Z,49.47
2019-03-27T12:26:54.573Z,49.4
2019-03-27T12:27:54.557Z,49.21
2019-03-27T12:28:54.537Z,48.83
2019-03-27T12:29:54.522Z,48.71
2019-03-27T12:30:54.275Z,48.61
2019-03-27T12:31:54.486Z,49.28
2019-03-27T12:32:54.545Z,49.76
2019-03-27T12:33:54.452Z,50.02
2019-03-27T12:34:54.433Z,50.02
2019-03-27T12:35:54.415Z,50.95
2019-03-27T12:36:54.394Z,50.78
2019-03-27T12:37:54.378Z,50.59
2019-03-27T12:38:54.352Z,50.69
2019-03-27T12:39:54.333Z,50.4
2019-03-27T12:40:54.078Z,50.98
2019-03-27T12:41:54.301Z,50.78
2019-03-27T12:42:54.278Z,50.31
2019-03-27T12:43:54.273Z,50.4
2019-03-27T12:44:54.240Z,50.49
2019-03-27T12:45:53.990Z,50.21
2019-03-27T12:46:54.500Z,50.02
2019-03-27T12:47:54.192Z,49.93
2019-03-27T12:48:54.168Z,50.02
2019-03-27T12:49:54.490Z,50.02
2019-03-27T12:50:54.133Z,50.12
2019-03-27T12:51:54.112Z,50.21
2019-03-27T12:52:54.095Z,50.21
2019-03-27T12:53:54.080Z,50.14
2019-03-27T12:54:54.055Z,50.02
2019-03-27T12:55:54.038Z,50.33